createdAt,value
2023-03-15T00:02:01.420Z,99350.84
2023-03-15T00:04:28.762Z,99351.66
2023-03-15T00:06:56.016Z,99350.84
2023-03-15T00:09:24.136Z,99349.19
2023-03-15T00:11:54.539Z,99345.84
2023-03-15T00:14:22.015Z,99350.03
2023-03-15T00:16:49.087Z,99350.91
2023-03-15T00:19:15.815Z,99349.25
2023-03-15T00:21:43.388Z,99346.75
2023-03-15T00:24:12.949Z,99352.66
2023-03-15T00:26:39.746Z,99348.44
2023-03-15T00:29:06.497Z,99353.47
2023-03-15T00:31:33.318Z,99354.34
2023-03-15T00:34:00.724Z,99360.28
2023-03-15T00:36:27.575Z,99356.09
2023-03-15T00:38:56.530Z,99345.25
2023-03-15T00:41:24.088Z,99348.66
2023-03-15T00:43:51.912Z,99352.88
2023-03-15T00:46:19.684Z,99347.88
2023-03-15T00:48:51.302Z,99354.59
2023-03-15T00:51:21.869Z,99347.97
2023-03-15T00:53:51.486Z,99364.75
2023-03-15T00:56:23.464Z,99361.44
2023-03-15T00:58:52.818Z,99363.22
2023-03-15T01:01:27.156Z,99360.72
2023-03-15T01:03:54.776Z,99373.38
2023-03-15T01:06:26.104Z,99375.91
2023-03-15T01:08:55.672Z,99382.72
2023-03-15T01:11:26.575Z,99383.63
2023-03-15T01:13:55.876Z,99384.50
2023-03-15T01:16:23.907Z,99382.03
2023-03-15T01:18:51.644Z,99394.66
2023-03-15T01:21:20.916Z,99396.38
2023-03-15T01:23:47.847Z,99394.75
2023-03-15T01:26:16.593Z,99400.63
2023-03-15T01:28:43.873Z,99397.31
2023-03-15T01:31:27.346Z,99399.00
2023-03-15T01:33:54.858Z,99398.19
2023-03-15T01:36:22.184Z,99404.03
2023-03-15T01:38:49.742Z,99405.72
2023-03-15T01:41:18.956Z,99400.66
2023-03-15T01:43:48.707Z,99407.34
2023-03-15T01:46:27.852Z,99406.47
2023-03-15T01:49:13.839Z,99413.91
2023-03-15T01:51:59.914Z,99411.31
2023-03-15T01:54:49.808Z,99401.16
2023-03-15T01:57:44.277Z,99423.69
2023-03-15T02:00:16.458Z,99429.50
2023-03-15T02:03:00.455Z,99426.91
2023-03-15T02:05:33.670Z,99419.34
2023-03-15T02:08:02.474Z,99410.91
2023-03-15T02:10:46.713Z,99401.56
2023-03-15T02:13:18.835Z,99396.50
2023-03-15T02:15:49.045Z,99401.44
2023-03-15T02:18:16.844Z,99409.78
2023-03-15T02:21:09.615Z,99412.31
2023-03-15T02:23:36.514Z,99404.69
2023-03-15T02:26:16.645Z,99408.00
2023-03-15T02:28:44.839Z,99409.63
2023-03-15T02:31:11.914Z,99410.44
2023-03-15T02:33:51.146Z,99407.91
2023-03-15T02:36:27.220Z,99407.03
2023-03-15T02:38:55.728Z,99410.31
2023-03-15T02:41:40.195Z,99417.81
2023-03-15T02:44:14.542Z,99404.28
2023-03-15T02:46:43.774Z,99409.25
2023-03-15T02:49:13.390Z,99408.34
2023-03-15T02:51:40.166Z,99407.44
2023-03-15T02:54:06.943Z,99414.13
2023-03-15T02:56:33.727Z,99410.75
2023-03-15T02:59:01.096Z,99418.25
2023-03-15T03:01:27.936Z,99425.69
2023-03-15T03:03:54.700Z,99421.47
2023-03-15T03:06:21.475Z,99419.81
2023-03-15T03:08:48.326Z,99423.97
2023-03-15T03:11:16.256Z,99417.25
2023-03-15T03:13:43.803Z,99423.13
2023-03-15T03:16:11.515Z,99423.97
2023-03-15T03:18:39.842Z,99431.50
2023-03-15T03:21:08.338Z,99435.69
2023-03-15T03:23:36.669Z,99435.72
2023-03-15T03:26:16.621Z,99434.88
2023-03-15T03:28:48.688Z,99446.56
2023-03-15T03:31:26.122Z,99436.53
2023-03-15T03:33:55.293Z,99446.56
2023-03-15T03:36:22.052Z,99448.28
2023-03-15T03:38:48.835Z,99449.94
2023-03-15T03:41:15.553Z,99453.25
2023-03-15T03:43:42.594Z,99453.22
2023-03-15T03:46:09.716Z,99459.06
2023-03-15T03:48:36.431Z,99465.72
2023-03-15T03:51:03.462Z,99470.72
2023-03-15T03:53:30.668Z,99473.22
2023-03-15T03:55:57.512Z,99475.72
2023-03-15T03:58:24.236Z,99479.13
2023-03-15T04:00:55.448Z,99498.31
2023-03-15T04:03:27.833Z,99501.69
2023-03-15T04:05:56.304Z,99497.50
2023-03-15T04:08:25.173Z,99505.94
2023-03-15T04:10:53.982Z,99503.38
2023-03-15T04:13:22.301Z,99504.25
2023-03-15T04:15:49.696Z,99511.00
2023-03-15T04:18:17.784Z,99507.66
2023-03-15T04:20:48.304Z,99505.19
2023-03-15T04:23:17.979Z,99518.59
2023-03-15T04:25:51.547Z,99523.59
2023-03-15T04:28:19.281Z,99519.38
2023-03-15T04:30:49.276Z,99530.22
2023-03-15T04:33:16.225Z,99527.66
2023-03-15T04:35:48.742Z,99533.47
2023-03-15T04:38:15.752Z,99537.66
2023-03-15T04:40:42.776Z,99528.41
2023-03-15T04:43:09.614Z,99542.66
2023-03-15T04:45:36.673Z,99538.41
2023-03-15T04:48:03.581Z,99547.59
2023-03-15T04:50:31.022Z,99551.81
2023-03-15T04:52:59.550Z,99545.09
2023-03-15T04:55:26.515Z,99550.97
2023-03-15T04:57:53.578Z,99551.00
2023-03-15T05:00:20.535Z,99555.22
2023-03-15T05:02:54.584Z,99547.69
2023-03-15T05:05:23.698Z,99551.91
2023-03-15T05:07:50.908Z,99549.38
2023-03-15T05:10:18.002Z,99553.63
2023-03-15T05:12:44.950Z,99554.47
2023-03-15T05:15:12.247Z,99557.81
2023-03-15T05:17:39.125Z,99561.19
2023-03-15T05:20:13.095Z,99562.91
2023-03-15T05:22:41.149Z,99567.84
2023-03-15T05:25:10.583Z,99572.00
2023-03-15T05:27:38.688Z,99578.66
2023-03-15T05:30:07.500Z,99584.53
2023-03-15T05:32:35.257Z,99586.16
2023-03-15T05:35:03.953Z,99587.78
2023-03-15T05:37:32.362Z,99598.66
2023-03-15T05:40:00.240Z,99599.50
2023-03-15T05:42:27.450Z,99605.31
2023-03-15T05:44:55.483Z,99602.81
2023-03-15T05:47:23.077Z,99606.13
2023-03-15T05:49:50.023Z,99609.53
2023-03-15T05:52:17.135Z,99612.88
2023-03-15T05:54:43.915Z,99612.94
2023-03-15T05:57:11.506Z,99612.94
2023-03-15T05:59:38.421Z,99616.31
2023-03-15T06:02:05.253Z,99626.34
2023-03-15T06:04:32.114Z,99628.94
2023-03-15T06:06:58.877Z,99640.63
2023-03-15T06:09:25.753Z,99644.03
2023-03-15T06:11:53.536Z,99644.06
2023-03-15T06:14:20.410Z,99649.13
2023-03-15T06:16:47.259Z,99648.31
2023-03-15T06:19:14.048Z,99650.84
2023-03-15T06:21:40.861Z,99655.88
2023-03-15T06:24:08.027Z,99658.44
2023-03-15T06:26:34.819Z,99660.09
2023-03-15T06:29:01.649Z,99667.69
2023-03-15T06:31:28.705Z,99674.41
2023-03-15T06:33:55.659Z,99666.97
2023-03-15T06:36:23.364Z,99662.78
2023-03-15T06:38:50.625Z,99677.97
2023-03-15T06:41:17.383Z,99683.91
2023-03-15T06:43:45.054Z,99683.94
2023-03-15T06:46:11.816Z,99683.19
2023-03-15T06:48:38.568Z,99686.63
2023-03-15T06:51:06.506Z,99694.19
2023-03-15T06:53:33.408Z,99706.06
2023-03-15T06:56:01.267Z,99707.78
2023-03-15T06:58:28.057Z,99716.25
2023-03-15T07:00:54.782Z,99719.63
2023-03-15T07:03:22.368Z,99732.19
2023-03-15T07:05:52.622Z,99731.41
2023-03-15T07:08:21.298Z,99739.03
2023-03-15T07:10:48.736Z,99740.75
2023-03-15T07:13:16.664Z,99750.03
2023-03-15T07:15:43.605Z,99751.75
2023-03-15T07:18:10.558Z,99755.13
2023-03-15T07:20:37.890Z,99754.41
2023-03-15T07:23:05.440Z,99765.31
2023-03-15T07:25:33.334Z,99762.03
2023-03-15T07:28:03.010Z,99762.13
2023-03-15T07:30:29.864Z,99768.06
2023-03-15T07:32:56.691Z,99770.63
2023-03-15T07:35:24.654Z,99774.06
2023-03-15T07:37:51.403Z,99785.09
2023-03-15T07:40:18.362Z,99783.53
2023-03-15T07:42:45.872Z,99782.94
2023-03-15T07:45:13.483Z,99789.22
2023-03-15T07:47:40.896Z,99788.28
2023-03-15T07:50:08.604Z,99790.72
2023-03-15T07:52:35.340Z,99793.91
2023-03-15T07:55:02.094Z,99798.59
2023-03-15T07:57:29.073Z,99803.94
2023-03-15T07:59:56.050Z,99814.25
2023-03-15T08:02:27.653Z,99816.88
2023-03-15T08:04:55.876Z,99816.91
2023-03-15T08:07:22.616Z,99819.50
2023-03-15T08:09:49.335Z,99817.03
2023-03-15T08:12:16.057Z,99829.69
2023-03-15T08:14:42.810Z,99833.06
2023-03-15T08:17:13.008Z,99838.97
2023-03-15T08:19:40.133Z,99844.78
2023-03-15T08:22:07.320Z,99853.78
2023-03-15T08:24:34.317Z,99849.97
2023-03-15T08:27:01.567Z,99851.72
2023-03-15T08:29:29.026Z,99842.81
2023-03-15T08:31:55.935Z,99847.88
2023-03-15T08:34:23.619Z,99853.41
2023-03-15T08:36:51.085Z,99855.25
2023-03-15T08:39:17.929Z,99854.38
2023-03-15T08:41:45.569Z,99861.03
2023-03-15T08:44:12.343Z,99872.75
2023-03-15T08:46:39.200Z,99875.47
2023-03-15T08:49:05.955Z,99871.06
2023-03-15T08:51:33.585Z,99869.53
2023-03-15T08:54:03.873Z,99871.22
2023-03-15T08:56:32.310Z,99875.06
2023-03-15T08:58:59.243Z,99870.84
2023-03-15T09:01:26.008Z,99878.59
2023-03-15T09:03:52.896Z,99881.34
2023-03-15T09:06:19.678Z,99883.03
2023-03-15T09:08:46.451Z,99874.50
2023-03-15T09:11:13.710Z,99890.09
2023-03-15T09:13:40.513Z,99885.41
2023-03-15T09:16:07.776Z,99884.38
2023-03-15T09:18:34.570Z,99886.69
2023-03-15T09:21:01.673Z,99881.41
2023-03-15T09:23:28.487Z,99886.94
2023-03-15T09:25:55.221Z,99887.25
2023-03-15T09:28:22.177Z,99893.38
2023-03-15T09:30:48.950Z,99899.66
2023-03-15T09:33:15.727Z,99896.03
2023-03-15T09:35:42.799Z,99907.50
2023-03-15T09:38:10.380Z,99907.31
2023-03-15T09:40:47.919Z,99910.34
2023-03-15T09:43:40.874Z,99913.59
2023-03-15T09:46:42.046Z,99914.03
2023-03-15T09:49:26.996Z,99909.31
2023-03-15T09:52:26.236Z,99912.16
2023-03-15T09:55:15.712Z,99913.44
2023-03-15T09:58:04.666Z,99910.19
2023-03-15T10:00:46.231Z,99910.78
2023-03-15T10:03:44.147Z,99901.59
2023-03-15T10:06:26.893Z,99890.16
2023-03-15T10:09:00.540Z,99897.31
2023-03-15T10:12:04.666Z,99895.19
2023-03-15T10:15:18.194Z,99902.59
2023-03-15T10:17:59.598Z,99901.28
2023-03-15T10:20:35.592Z,99907.00
2023-03-15T10:23:16.298Z,99901.16
2023-03-15T10:25:44.782Z,99914.41
2023-03-15T10:28:34.795Z,99917.34
2023-03-15T10:31:22.508Z,99906.03
2023-03-15T10:33:57.168Z,99903.88
2023-03-15T10:36:25.845Z,99904.66
2023-03-15T10:38:52.804Z,99899.75
2023-03-15T10:41:44.690Z,99908.38
2023-03-15T10:44:18.270Z,99900.50
2023-03-15T10:47:22.607Z,99898.06
2023-03-15T10:49:57.504Z,99910.13
2023-03-15T10:52:43.415Z,99911.63
2023-03-15T10:55:21.199Z,99910.09
2023-03-15T10:57:59.863Z,99910.84
2023-03-15T11:00:36.666Z,99913.91
2023-03-15T11:03:19.592Z,99914.06
2023-03-15T11:05:51.596Z,99916.03
2023-03-15T11:08:24.110Z,99922.78
2023-03-15T11:10:59.778Z,99929.41
2023-03-15T11:13:39.085Z,99928.69
2023-03-15T11:16:15.539Z,99929.16
2023-03-15T11:18:59.599Z,99939.31
2023-03-15T11:21:35.282Z,99928.91
2023-03-15T11:24:05.595Z,99932.03
2023-03-15T11:26:38.585Z,99948.59
2023-03-15T11:29:23.558Z,99952.50
2023-03-15T11:31:52.099Z,99950.38
2023-03-15T11:34:48.506Z,99951.16
2023-03-15T11:37:23.490Z,99953.59
2023-03-15T11:40:15.548Z,99961.06
2023-03-15T11:43:11.994Z,99959.28
2023-03-15T11:45:57.703Z,99968.38
2023-03-15T11:48:46.006Z,99969.75
2023-03-15T11:51:14.189Z,99969.31
2023-03-15T11:54:13.296Z,99983.34
2023-03-15T11:56:49.294Z,99976.94
2023-03-15T11:59:19.683Z,99981.50
2023-03-15T12:01:57.633Z,99969.91
2023-03-15T12:04:33.139Z,99975.28
2023-03-15T12:07:06.505Z,99970.44
2023-03-15T12:09:33.171Z,99973.06
2023-03-15T12:12:04.532Z,99973.78
2023-03-15T12:14:37.034Z,99973.50
2023-03-15T12:17:53.898Z,99978.38
2023-03-15T12:20:37.736Z,99977.19
2023-03-15T12:23:16.766Z,99977.63
2023-03-15T12:25:56.471Z,99979.63
2023-03-15T12:28:49.450Z,99980.06
2023-03-15T12:31:17.129Z,99971.34
2023-03-15T12:33:54.996Z,99973.81
2023-03-15T12:36:34.686Z,99965.94
2023-03-15T12:39:36.952Z,99960.56
2023-03-15T12:42:06.065Z,99966.84
2023-03-15T12:44:32.748Z,99964.63
2023-03-15T12:47:06.000Z,99958.88
2023-03-15T12:49:41.223Z,99959.22
2023-03-15T12:52:11.006Z,99952.94
2023-03-15T12:55:15.972Z,99957.09
2023-03-15T12:57:57.983Z,99952.03
2023-03-15T13:00:30.250Z,99956.31
2023-03-15T13:03:11.598Z,99959.66
2023-03-15T13:06:24.637Z,99958.69
2023-03-15T13:09:39.466Z,99950.06
2023-03-15T13:12:20.209Z,99958.75
2023-03-15T13:15:02.807Z,99953.63
2023-03-15T13:17:52.783Z,99953.63
2023-03-15T13:20:59.344Z,99950.22
2023-03-15T13:23:29.816Z,99956.31
2023-03-15T13:26:18.159Z,99947.88
2023-03-15T13:29:00.957Z,99953.00
2023-03-15T13:31:31.638Z,99957.25
2023-03-15T13:34:15.352Z,99950.38
2023-03-15T13:36:49.285Z,99953.81
2023-03-15T13:39:27.673Z,99952.28
2023-03-15T13:42:04.484Z,99949.88
2023-03-15T13:45:39.772Z,99945.88
2023-03-15T13:47:26.655Z,99950.31
2023-03-15T13:49:53.552Z,99941.19
2023-03-15T13:52:20.592Z,99943.09
2023-03-15T13:54:48.727Z,99943.38
2023-03-15T13:57:24.832Z,99953.81
2023-03-15T13:59:57.126Z,99953.94
2023-03-15T14:02:33.155Z,99952.28
2023-03-15T14:05:07.132Z,99944.75
2023-03-15T14:07:44.254Z,99955.25
2023-03-15T14:10:17.139Z,99960.59
2023-03-15T14:12:45.716Z,99962.47
2023-03-15T14:15:35.890Z,99961.72
2023-03-15T14:18:17.179Z,99958.59
2023-03-15T14:20:53.762Z,99967.41
2023-03-15T14:23:26.445Z,99964.25
2023-03-15T14:26:06.852Z,99958.56
2023-03-15T14:28:34.580Z,99957.00
2023-03-15T14:31:02.674Z,99957.22
2023-03-15T14:33:41.862Z,99960.81
2023-03-15T14:36:24.724Z,99966.06
2023-03-15T14:38:58.031Z,99964.50
2023-03-15T14:41:27.556Z,99966.31
2023-03-15T14:43:54.377Z,99964.00
2023-03-15T14:46:21.565Z,99967.56
2023-03-15T14:48:51.127Z,99981.38
2023-03-15T14:51:24.894Z,99974.88
2023-03-15T14:53:56.338Z,99976.88
2023-03-15T14:56:27.532Z,99975.50
2023-03-15T14:58:54.337Z,99973.22
2023-03-15T15:01:25.871Z,99979.44
2023-03-15T15:03:59.653Z,99978.06
2023-03-15T15:06:29.895Z,99985.97
2023-03-15T15:09:00.092Z,99981.91
2023-03-15T15:11:27.258Z,99977.78
2023-03-15T15:13:54.244Z,99986.34
2023-03-15T15:16:21.001Z,99984.66
2023-03-15T15:18:48.531Z,99975.31
2023-03-15T15:21:33.692Z,99977.81
2023-03-15T15:24:04.880Z,99976.19
2023-03-15T15:26:33.429Z,99975.47
2023-03-15T15:29:00.802Z,99972.97
2023-03-15T15:31:30.091Z,99967.97
2023-03-15T15:33:57.443Z,99966.28
2023-03-15T15:36:34.000Z,99966.41
2023-03-15T15:39:06.447Z,99965.69
2023-03-15T15:41:34.266Z,99955.59
2023-03-15T15:44:01.605Z,99954.84
2023-03-15T15:46:28.485Z,99949.84
2023-03-15T15:48:55.355Z,99954.16
2023-03-15T15:51:38.525Z,99953.34
2023-03-15T15:54:06.573Z,99957.59
2023-03-15T15:56:39.992Z,99960.19
2023-03-15T15:59:13.624Z,99944.97
2023-03-15T16:01:56.720Z,99956.84
2023-03-15T16:04:26.200Z,99956.03
2023-03-15T16:06:58.635Z,99956.94
2023-03-15T16:09:28.601Z,99956.13
2023-03-15T16:11:55.640Z,99962.94
2023-03-15T16:14:22.573Z,99962.09
2023-03-15T16:16:49.349Z,99959.59
2023-03-15T16:19:16.151Z,99953.69
2023-03-15T16:21:47.791Z,99953.72
2023-03-15T16:24:31.795Z,99946.97
2023-03-15T16:27:08.123Z,99952.94
2023-03-15T16:29:48.194Z,99950.41
2023-03-15T16:32:29.815Z,99962.28
2023-03-15T16:35:15.445Z,99962.31
2023-03-15T16:37:43.381Z,99957.22
2023-03-15T16:40:25.269Z,99960.66
2023-03-15T16:42:52.431Z,99964.03
2023-03-15T16:45:19.670Z,99960.66
2023-03-15T16:47:46.687Z,99964.88
2023-03-15T16:50:13.423Z,99965.75
2023-03-15T16:52:43.415Z,99973.31
2023-03-15T16:55:14.455Z,99967.41
2023-03-15T16:57:41.713Z,99971.66
2023-03-15T17:00:20.295Z,99967.41
2023-03-15T17:02:49.967Z,99980.09
2023-03-15T17:05:19.102Z,99975.84
2023-03-15T17:07:48.617Z,99981.75
2023-03-15T17:10:29.537Z,99977.53
2023-03-15T17:12:59.737Z,99973.25
2023-03-15T17:15:29.038Z,99975.78
2023-03-15T17:18:00.336Z,99984.22
2023-03-15T17:20:29.105Z,99982.50
2023-03-15T17:23:04.139Z,99987.53
2023-03-15T17:25:32.848Z,99986.66
2023-03-15T17:28:00.410Z,99984.94
2023-03-15T17:30:33.888Z,99989.97
2023-03-15T17:33:01.509Z,99988.25
2023-03-15T17:35:35.960Z,99995.78
2023-03-15T17:38:06.386Z,99997.44
2023-03-15T17:40:36.158Z,100000.78
2023-03-15T17:43:04.029Z,100004.16
2023-03-15T17:45:33.525Z,99999.03
2023-03-15T17:48:01.894Z,100003.22
2023-03-15T17:50:32.592Z,99999.81
2023-03-15T17:53:21.029Z,99993.88
2023-03-15T17:55:48.964Z,100003.94
2023-03-15T17:58:22.749Z,100003.88
2023-03-15T18:00:54.712Z,100002.19
2023-03-15T18:03:23.588Z,100004.69
2023-03-15T18:05:51.931Z,100013.09
2023-03-15T18:08:24.923Z,100009.66
2023-03-15T18:10:54.870Z,100005.41
2023-03-15T18:13:23.401Z,100007.91
2023-03-15T18:15:51.206Z,100010.38
2023-03-15T18:18:27.121Z,100012.88
2023-03-15T18:20:53.964Z,100020.41
2023-03-15T18:23:20.646Z,100020.38
2023-03-15T18:25:48.207Z,100020.31
2023-03-15T18:28:15.050Z,100024.50
2023-03-15T18:30:41.928Z,100030.34
2023-03-15T18:33:10.799Z,100032.03
2023-03-15T18:35:38.100Z,100036.19
2023-03-15T18:38:05.500Z,100026.91
2023-03-15T18:40:33.859Z,100042.00
2023-03-15T18:43:01.412Z,100040.28
2023-03-15T18:45:32.292Z,100044.44
2023-03-15T18:48:02.162Z,100037.66
2023-03-15T18:50:30.299Z,100038.44
2023-03-15T18:52:57.805Z,100040.91
2023-03-15T18:55:25.044Z,100036.72
2023-03-15T18:57:54.570Z,100033.28
2023-03-15T19:00:29.423Z,100037.34
2023-03-15T19:03:00.175Z,100035.63
2023-03-15T19:05:30.669Z,100030.53
2023-03-15T19:07:57.921Z,100039.72
2023-03-15T19:10:25.726Z,100038.84
2023-03-15T19:12:53.482Z,100039.69
2023-03-15T19:15:22.553Z,100036.28
2023-03-15T19:17:54.486Z,100030.88
2023-03-15T19:20:22.402Z,100037.03
2023-03-15T19:22:51.827Z,100031.91
2023-03-15T19:25:20.312Z,100031.69
2023-03-15T19:27:47.209Z,100023.91
2023-03-15T19:30:20.843Z,100033.09
2023-03-15T19:32:48.523Z,100036.41
2023-03-15T19:35:17.541Z,100037.19
2023-03-15T19:37:44.537Z,100035.47
2023-03-15T19:40:13.956Z,100035.47
2023-03-15T19:42:41.431Z,100029.50
2023-03-15T19:45:09.446Z,100029.44
2023-03-15T19:47:36.279Z,100026.88
2023-03-15T19:50:03.444Z,100031.00
2023-03-15T19:52:30.326Z,100035.16
2023-03-15T19:54:57.155Z,100035.16
2023-03-15T19:57:23.987Z,100028.34
2023-03-15T19:59:50.735Z,100027.47
2023-03-15T20:02:17.549Z,100022.34
2023-03-15T20:04:45.333Z,100025.66
2023-03-15T20:07:12.349Z,100022.28
2023-03-15T20:09:41.371Z,100021.38
2023-03-15T20:12:11.200Z,100017.97
2023-03-15T20:14:38.596Z,100022.19
2023-03-15T20:17:05.798Z,100019.66
2023-03-15T20:19:33.404Z,100019.63
2023-03-15T20:22:00.412Z,100023.81
2023-03-15T20:24:27.640Z,100031.38
2023-03-15T20:26:54.628Z,100038.94
2023-03-15T20:29:23.343Z,100030.50
2023-03-15T20:31:50.902Z,100033.78
2023-03-15T20:34:18.901Z,100039.69
2023-03-15T20:36:45.699Z,100027.00
2023-03-15T20:39:12.540Z,100040.44
2023-03-15T20:41:39.300Z,100044.63
2023-03-15T20:44:07.158Z,100037.03
2023-03-15T20:46:34.282Z,100047.84
2023-03-15T20:49:01.293Z,100052.03
2023-03-15T20:51:28.178Z,100049.47
2023-03-15T20:53:54.958Z,100051.94
2023-03-15T20:56:21.879Z,100043.47
2023-03-15T20:58:48.729Z,100041.75
2023-03-15T21:01:16.762Z,100040.88
2023-03-15T21:03:45.703Z,100046.72
2023-03-15T21:06:13.484Z,100046.63
2023-03-15T21:08:42.256Z,100034.84
2023-03-15T21:11:09.489Z,100038.16
2023-03-15T21:13:36.278Z,100033.06
2023-03-15T21:16:04.487Z,100028.84
2023-03-15T21:18:33.549Z,100031.34
2023-03-15T21:21:07.233Z,100026.25
2023-03-15T21:23:34.912Z,100023.69
2023-03-15T21:26:07.829Z,100033.75
2023-03-15T21:28:35.368Z,100027.84
2023-03-15T21:31:04.011Z,100015.19
2023-03-15T21:33:31.776Z,100006.75
2023-03-15T21:36:00.345Z,100010.88
2023-03-15T21:38:31.388Z,100006.63
2023-03-15T21:40:59.746Z,100012.47
2023-03-15T21:43:30.508Z,100013.28
2023-03-15T21:46:05.559Z,100001.47
2023-03-15T21:48:33.786Z,100000.53
2023-03-15T21:51:02.025Z,100004.72
2023-03-15T21:53:30.111Z,100008.84
2023-03-15T21:55:58.888Z,100011.34
2023-03-15T21:58:26.752Z,99996.97
2023-03-15T22:01:13.962Z,99996.91
2023-03-15T22:03:42.410Z,99994.34
2023-03-15T22:06:09.192Z,100005.22
2023-03-15T22:08:35.966Z,99995.94
2023-03-15T22:11:04.586Z,100000.13
2023-03-15T22:13:31.663Z,100002.59
2023-03-15T22:15:58.734Z,99993.31
2023-03-15T22:18:28.604Z,99990.78
2023-03-15T22:20:56.429Z,99994.97
2023-03-15T22:23:24.405Z,99983.97
2023-03-15T22:25:53.532Z,99986.50
2023-03-15T22:28:22.541Z,99998.25
2023-03-15T22:30:49.968Z,99992.34
2023-03-15T22:33:18.734Z,99996.56
2023-03-15T22:35:45.996Z,99989.81
2023-03-15T22:38:12.739Z,99987.28
2023-03-15T22:40:41.089Z,99987.25
2023-03-15T22:43:08.643Z,99985.53
2023-03-15T22:45:36.063Z,99984.63
2023-03-15T22:48:03.258Z,99978.66
2023-03-15T22:50:30.959Z,99986.16
2023-03-15T22:52:57.730Z,99991.97
2023-03-15T22:55:24.993Z,99986.00
2023-03-15T22:57:51.780Z,99993.50
2023-03-15T23:00:22.082Z,99976.69
2023-03-15T23:02:49.107Z,99973.31
2023-03-15T23:05:16.396Z,99974.97
2023-03-15T23:07:43.608Z,99966.59
2023-03-15T23:10:11.801Z,99968.25
2023-03-15T23:12:38.671Z,99962.38
2023-03-15T23:15:06.474Z,99965.75
2023-03-15T23:17:33.238Z,99967.47
2023-03-15T23:19:59.970Z,99969.19
2023-03-15T23:22:26.844Z,99960.81
2023-03-15T23:24:58.336Z,99964.16
2023-03-15T23:27:25.949Z,99969.16
2023-03-15T23:29:54.760Z,99972.50
2023-03-15T23:32:24.938Z,99971.69
2023-03-15T23:34:53.525Z,99965.00
2023-03-15T23:37:20.976Z,99962.44
2023-03-15T23:39:47.781Z,99963.28
2023-03-15T23:42:14.607Z,99963.31
2023-03-15T23:44:41.575Z,99958.25
2023-03-15T23:47:08.632Z,99965.75
2023-03-15T23:49:35.775Z,99964.13
2023-03-15T23:52:06.587Z,99965.81
2023-03-15T23:54:39.647Z,99968.31
2023-03-15T23:57:08.590Z,99969.16
2023-03-15T23:59:36.977Z,99966.66
